sensor_id;sensor_type;location;lat;lon;timestamp;pressure;altitude;pressure_sealevel;temperature
15079;BMP180;6932;51.438;5.470;2023-04-06T00:01:10;101437.00;;;12.90
15079;BMP180;6932;51.438;5.470;2023-04-06T00:03:37;101443.00;;;12.90
15079;BMP180;6932;51.438;5.470;2023-04-06T00:06:03;101441.00;;;12.90
15079;BMP180;6932;51.438;5.470;2023-04-06T00:08:29;101438.00;;;12.90
15079;BMP180;6932;51.438;5.470;2023-04-06T00:10:55;101444.00;;;12.90
15079;BMP180;6932;51.438;5.470;2023-04-06T00:13:21;101437.00;;;12.80
15079;BMP180;6932;51.438;5.470;2023-04-06T00:15:47;101430.00;;;12.80
15079;BMP180;6932;51.438;5.470;2023-04-06T00:18:12;101437.00;;;12.80
15079;BMP180;6932;51.438;5.470;2023-04-06T00:20:38;101432.00;;;12.80
15079;BMP180;6932;51.438;5.470;2023-04-06T00:23:04;101429.00;;;12.70
15079;BMP180;6932;51.438;5.470;2023-04-06T00:25:30;101431.00;;;12.70
15079;BMP180;6932;51.438;5.470;2023-04-06T00:27:55;101422.00;;;12.70
15079;BMP180;6932;51.438;5.470;2023-04-06T00:30:21;101435.00;;;12.70
15079;BMP180;6932;51.438;5.470;2023-04-06T00:32:47;101418.00;;;12.70
15079;BMP180;6932;51.438;5.470;2023-04-06T00:35:13;101421.00;;;12.60
15079;BMP180;6932;51.438;5.470;2023-04-06T00:37:40;101421.00;;;12.60
15079;BMP180;6932;51.438;5.470;2023-04-06T00:40:07;101412.00;;;12.60
15079;BMP180;6932;51.438;5.470;2023-04-06T00:42:32;101409.00;;;12.60
15079;BMP180;6932;51.438;5.470;2023-04-06T00:45:00;101413.00;;;12.50
15079;BMP180;6932;51.438;5.470;2023-04-06T00:47:27;101407.00;;;12.50
15079;BMP180;6932;51.438;5.470;2023-04-06T00:49:53;101415.00;;;12.50
15079;BMP180;6932;51.438;5.470;2023-04-06T00:52:20;101405.00;;;12.50
15079;BMP180;6932;51.438;5.470;2023-04-06T00:54:46;101402.00;;;12.50
15079;BMP180;6932;51.438;5.470;2023-04-06T00:57:12;101402.00;;;12.40
15079;BMP180;6932;51.438;5.470;2023-04-06T00:59:39;101395.00;;;12.40
15079;BMP180;6932;51.438;5.470;2023-04-06T01:02:06;101394.00;;;12.40
15079;BMP180;6932;51.438;5.470;2023-04-06T01:04:33;101390.00;;;12.30
15079;BMP180;6932;51.438;5.470;2023-04-06T01:06:59;101387.00;;;12.30
15079;BMP180;6932;51.438;5.470;2023-04-06T01:09:27;101384.00;;;12.30
15079;BMP180;6932;51.438;5.470;2023-04-06T01:11:54;101383.00;;;12.30
15079;BMP180;6932;51.438;5.470;2023-04-06T01:15:10;101377.00;;;12.20
15079;BMP180;6932;51.438;5.470;2023-04-06T01:17:36;101375.00;;;12.20
15079;BMP180;6932;51.438;5.470;2023-04-06T01:20:02;101382.00;;;12.10
15079;BMP180;6932;51.438;5.470;2023-04-06T01:22:28;101382.00;;;12.10
15079;BMP180;6932;51.438;5.470;2023-04-06T01:24:53;101371.00;;;12.10
15079;BMP180;6932;51.438;5.470;2023-04-06T01:27:19;101382.00;;;12.10
15079;BMP180;6932;51.438;5.470;2023-04-06T01:29:45;101385.00;;;12.10
15079;BMP180;6932;51.438;5.470;2023-04-06T01:32:10;101372.00;;;12.10
15079;BMP180;6932;51.438;5.470;2023-04-06T01:34:36;101379.00;;;12.10
15079;BMP180;6932;51.438;5.470;2023-04-06T01:37:02;101366.00;;;12.00
15079;BMP180;6932;51.438;5.470;2023-04-06T01:39:30;101373.00;;;12.00
15079;BMP180;6932;51.438;5.470;2023-04-06T01:41:55;101373.00;;;12.00
15079;BMP180;6932;51.438;5.470;2023-04-06T01:44:21;101361.00;;;12.00
15079;BMP180;6932;51.438;5.470;2023-04-06T01:46:47;101355.00;;;12.00
15079;BMP180;6932;51.438;5.470;2023-04-06T01:49:43;101365.00;;;12.00
15079;BMP180;6932;51.438;5.470;2023-04-06T01:52:09;101356.00;;;11.90
15079;BMP180;6932;51.438;5.470;2023-04-06T01:54:35;101350.00;;;11.90
15079;BMP180;6932;51.438;5.470;2023-04-06T01:57:00;101338.00;;;11.90
15079;BMP180;6932;51.438;5.470;2023-04-06T01:59:26;101342.00;;;11.90
15079;BMP180;6932;51.438;5.470;2023-04-06T02:01:52;101343.00;;;11.90
15079;BMP180;6932;51.438;5.470;2023-04-06T02:04:18;101334.00;;;11.90
15079;BMP180;6932;51.438;5.470;2023-04-06T02:06:43;101334.00;;;11.80
15079;BMP180;6932;51.438;5.470;2023-04-06T02:09:09;101332.00;;;11.80
15079;BMP180;6932;51.438;5.470;2023-04-06T02:11:35;101332.00;;;11.80
15079;BMP180;6932;51.438;5.470;2023-04-06T02:14:13;101321.00;;;11.80
15079;BMP180;6932;51.438;5.470;2023-04-06T02:16:39;101323.00;;;11.80
15079;BMP180;6932;51.438;5.470;2023-04-06T02:19:05;101321.00;;;11.80
15079;BMP180;6932;51.438;5.470;2023-04-06T02:21:30;101318.00;;;11.80
15079;BMP180;6932;51.438;5.470;2023-04-06T02:23:56;101318.00;;;11.80
15079;BMP180;6932;51.438;5.470;2023-04-06T02:26:22;101324.00;;;11.80
15079;BMP180;6932;51.438;5.470;2023-04-06T02:32:37;101317.00;;;11.80
15079;BMP180;6932;51.438;5.470;2023-04-06T02:35:03;101315.00;;;11.70
15079;BMP180;6932;51.438;5.470;2023-04-06T02:37:29;101320.00;;;11.80
15079;BMP180;6932;51.438;5.470;2023-04-06T02:39:55;101300.00;;;11.80
15079;BMP180;6932;51.438;5.470;2023-04-06T02:42:20;101307.00;;;11.80
15079;BMP180;6932;51.438;5.470;2023-04-06T02:44:46;101303.00;;;11.80
15079;BMP180;6932;51.438;5.470;2023-04-06T02:47:12;101299.00;;;11.80
15079;BMP180;6932;51.438;5.470;2023-04-06T02:49:37;101294.00;;;11.80
15079;BMP180;6932;51.438;5.470;2023-04-06T02:52:12;101287.00;;;11.80
15079;BMP180;6932;51.438;5.470;2023-04-06T02:54:38;101288.00;;;11.80
15079;BMP180;6932;51.438;5.470;2023-04-06T02:57:04;101282.00;;;11.80
15079;BMP180;6932;51.438;5.470;2023-04-06T02:59:29;101284.00;;;11.80
15079;BMP180;6932;51.438;5.470;2023-04-06T03:01:55;101282.00;;;11.80
15079;BMP180;6932;51.438;5.470;2023-04-06T03:04:21;101288.00;;;11.80
15079;BMP180;6932;51.438;5.470;2023-04-06T03:06:48;101275.00;;;11.80
15079;BMP180;6932;51.438;5.470;2023-04-06T03:09:14;101284.00;;;11.90
15079;BMP180;6932;51.438;5.470;2023-04-06T03:11:39;101274.00;;;11.90
15079;BMP180;6932;51.438;5.470;2023-04-06T03:14:05;101277.00;;;11.90
15079;BMP180;6932;51.438;5.470;2023-04-06T03:16:31;101272.00;;;11.90
15079;BMP180;6932;51.438;5.470;2023-04-06T03:18:57;101275.00;;;11.90
15079;BMP180;6932;51.438;5.470;2023-04-06T03:21:22;101265.00;;;11.80
15079;BMP180;6932;51.438;5.470;2023-04-06T03:23:48;101270.00;;;11.90
15079;BMP180;6932;51.438;5.470;2023-04-06T03:26:17;101269.00;;;11.90
15079;BMP180;6932;51.438;5.470;2023-04-06T03:32:24;101261.00;;;11.80
15079;BMP180;6932;51.438;5.470;2023-04-06T03:34:50;101254.00;;;11.80
15079;BMP180;6932;51.438;5.470;2023-04-06T03:37:15;101262.00;;;11.80
15079;BMP180;6932;51.438;5.470;2023-04-06T03:39:41;101258.00;;;11.80
15079;BMP180;6932;51.438;5.470;2023-04-06T03:42:07;101248.00;;;11.80
15079;BMP180;6932;51.438;5.470;2023-04-06T03:44:32;101261.00;;;11.80
15079;BMP180;6932;51.438;5.470;2023-04-06T03:46:58;101260.00;;;11.80
15079;BMP180;6932;51.438;5.470;2023-04-06T03:49:24;101256.00;;;11.80
15079;BMP180;6932;51.438;5.470;2023-04-06T03:51:49;101257.00;;;11.80
15079;BMP180;6932;51.438;5.470;2023-04-06T03:54:15;101261.00;;;11.80
15079;BMP180;6932;51.438;5.470;2023-04-06T03:56:41;101252.00;;;11.80
15079;BMP180;6932;51.438;5.470;2023-04-06T03:59:07;101258.00;;;11.80
15079;BMP180;6932;51.438;5.470;2023-04-06T04:01:32;101249.00;;;11.80
15079;BMP180;6932;51.438;5.470;2023-04-06T04:03:58;101257.00;;;11.80
15079;BMP180;6932;51.438;5.470;2023-04-06T04:06:24;101260.00;;;11.80
15079;BMP180;6932;51.438;5.470;2023-04-06T04:08:50;101248.00;;;11.80
15079;BMP180;6932;51.438;5.470;2023-04-06T04:11:16;101258.00;;;11.80
15079;BMP180;6932;51.438;5.470;2023-04-06T04:13:42;101254.00;;;11.80
15079;BMP180;6932;51.438;5.470;2023-04-06T04:16:08;101255.00;;;11.80
15079;BMP180;6932;51.438;5.470;2023-04-06T04:18:33;101250.00;;;11.80
15079;BMP180;6932;51.438;5.470;2023-04-06T04:20:59;101252.00;;;11.80
15079;BMP180;6932;51.438;5.470;2023-04-06T04:23:25;101251.00;;;11.80
15079;BMP180;6932;51.438;5.470;2023-04-06T04:25:51;101255.00;;;11.80
15079;BMP180;6932;51.438;5.470;2023-04-06T04:28:17;101261.00;;;11.70
15079;BMP180;6932;51.438;5.470;2023-04-06T04:30:42;101255.00;;;11.70
15079;BMP180;6932;51.438;5.470;2023-04-06T04:33:08;101254.00;;;11.70
15079;BMP180;6932;51.438;5.470;2023-04-06T04:35:34;101252.00;;;11.70
15079;BMP180;6932;51.438;5.470;2023-04-06T04:37:59;101250.00;;;11.70
15079;BMP180;6932;51.438;5.470;2023-04-06T04:40:25;101250.00;;;11.70
15079;BMP180;6932;51.438;5.470;2023-04-06T04:42:51;101240.00;;;11.70
15079;BMP180;6932;51.438;5.470;2023-04-06T04:45:17;101245.00;;;11.70
15079;BMP180;6932;51.438;5.470;2023-04-06T04:47:42;101250.00;;;11.70
15079;BMP180;6932;51.438;5.470;2023-04-06T04:50:09;101242.00;;;11.60
15079;BMP180;6932;51.438;5.470;2023-04-06T04:52:34;101246.00;;;11.60
15079;BMP180;6932;51.438;5.470;2023-04-06T04:55:01;101242.00;;;11.60
15079;BMP180;6932;51.438;5.470;2023-04-06T04:57:27;101242.00;;;11.60
15079;BMP180;6932;51.438;5.470;2023-04-06T04:59:52;101237.00;;;11.60
15079;BMP180;6932;51.438;5.470;2023-04-06T05:02:18;101244.00;;;11.60
15079;BMP180;6932;51.438;5.470;2023-04-06T05:04:44;101230.00;;;11.60
15079;BMP180;6932;51.438;5.470;2023-04-06T05:07:10;101241.00;;;11.60
15079;BMP180;6932;51.438;5.470;2023-04-06T05:09:36;101239.00;;;11.60
15079;BMP180;6932;51.438;5.470;2023-04-06T05:12:02;101240.00;;;11.60
15079;BMP180;6932;51.438;5.470;2023-04-06T05:14:28;101237.00;;;11.60
15079;BMP180;6932;51.438;5.470;2023-04-06T05:16:54;101250.00;;;11.60
15079;BMP180;6932;51.438;5.470;2023-04-06T05:19:20;101240.00;;;11.60
15079;BMP180;6932;51.438;5.470;2023-04-06T05:21:46;101237.00;;;11.60
15079;BMP180;6932;51.438;5.470;2023-04-06T05:24:12;101237.00;;;11.60
15079;BMP180;6932;51.438;5.470;2023-04-06T05:26:38;101248.00;;;11.70
15079;BMP180;6932;51.438;5.470;2023-04-06T05:29:04;101239.00;;;11.70
15079;BMP180;6932;51.438;5.470;2023-04-06T05:31:29;101250.00;;;11.70
15079;BMP180;6932;51.438;5.470;2023-04-06T05:33:56;101246.00;;;11.70
15079;BMP180;6932;51.438;5.470;2023-04-06T05:36:22;101240.00;;;11.70
15079;BMP180;6932;51.438;5.470;2023-04-06T05:38:48;101243.00;;;11.70
15079;BMP180;6932;51.438;5.470;2023-04-06T05:41:15;101236.00;;;11.70
15079;BMP180;6932;51.438;5.470;2023-04-06T05:43:41;101229.00;;;11.80
15079;BMP180;6932;51.438;5.470;2023-04-06T05:46:07;101235.00;;;11.80
15079;BMP180;6932;51.438;5.470;2023-04-06T05:48:33;101232.00;;;11.80
15079;BMP180;6932;51.438;5.470;2023-04-06T05:50:59;101235.00;;;11.80
15079;BMP180;6932;51.438;5.470;2023-04-06T05:53:25;101233.00;;;11.80
15079;BMP180;6932;51.438;5.470;2023-04-06T05:55:51;101231.00;;;11.90
15079;BMP180;6932;51.438;5.470;2023-04-06T05:58:17;101234.00;;;11.90
15079;BMP180;6932;51.438;5.470;2023-04-06T06:11:55;101229.00;;;11.90
15079;BMP180;6932;51.438;5.470;2023-04-06T06:14:21;101230.00;;;12.00
15079;BMP180;6932;51.438;5.470;2023-04-06T06:16:47;101241.00;;;12.00
15079;BMP180;6932;51.438;5.470;2023-04-06T06:19:13;101245.00;;;12.00
15079;BMP180;6932;51.438;5.470;2023-04-06T06:21:39;101229.00;;;12.10
15079;BMP180;6932;51.438;5.470;2023-04-06T06:24:06;101236.00;;;12.10
15079;BMP180;6932;51.438;5.470;2023-04-06T06:26:32;101221.00;;;12.10
15079;BMP180;6932;51.438;5.470;2023-04-06T06:28:58;101230.00;;;12.10
15079;BMP180;6932;51.438;5.470;2023-04-06T06:38:55;101238.00;;;12.10
15079;BMP180;6932;51.438;5.470;2023-04-06T06:41:20;101234.00;;;12.20
15079;BMP180;6932;51.438;5.470;2023-04-06T06:43:46;101235.00;;;12.20
15079;BMP180;6932;51.438;5.470;2023-04-06T06:46:12;101241.00;;;12.30
15079;BMP180;6932;51.438;5.470;2023-04-06T06:48:38;101237.00;;;12.30
15079;BMP180;6932;51.438;5.470;2023-04-06T06:51:03;101240.00;;;12.30
15079;BMP180;6932;51.438;5.470;2023-04-06T06:53:29;101234.00;;;12.30
15079;BMP180;6932;51.438;5.470;2023-04-06T06:55:55;101231.00;;;12.40
15079;BMP180;6932;51.438;5.470;2023-04-06T07:13:15;101239.00;;;12.40
15079;BMP180;6932;51.438;5.470;2023-04-06T07:15:48;101227.00;;;12.40
15079;BMP180;6932;51.438;5.470;2023-04-06T07:18:14;101230.00;;;12.50
15079;BMP180;6932;51.438;5.470;2023-04-06T07:20:39;101218.00;;;12.50
15079;BMP180;6932;51.438;5.470;2023-04-06T07:23:06;101216.00;;;12.50
15079;BMP180;6932;51.438;5.470;2023-04-06T07:25:32;101226.00;;;12.60
15079;BMP180;6932;51.438;5.470;2023-04-06T07:27:57;101213.00;;;12.60
15079;BMP180;6932;51.438;5.470;2023-04-06T07:30:23;101217.00;;;12.60
15079;BMP180;6932;51.438;5.470;2023-04-06T07:32:51;101215.00;;;12.70
15079;BMP180;6932;51.438;5.470;2023-04-06T07:35:17;101225.00;;;12.70
15079;BMP180;6932;51.438;5.470;2023-04-06T07:37:43;101225.00;;;12.70
15079;BMP180;6932;51.438;5.470;2023-04-06T07:40:09;101221.00;;;12.80
15079;BMP180;6932;51.438;5.470;2023-04-06T07:42:35;101222.00;;;12.80
15079;BMP180;6932;51.438;5.470;2023-04-06T07:45:01;101223.00;;;12.90
15079;BMP180;6932;51.438;5.470;2023-04-06T07:47:26;101213.00;;;12.90
15079;BMP180;6932;51.438;5.470;2023-04-06T07:49:54;101215.00;;;12.90
15079;BMP180;6932;51.438;5.470;2023-04-06T07:52:21;101222.00;;;13.00
15079;BMP180;6932;51.438;5.470;2023-04-06T07:58:21;101216.00;;;13.00
15079;BMP180;6932;51.438;5.470;2023-04-06T08:00:47;101215.00;;;13.00
15079;BMP180;6932;51.438;5.470;2023-04-06T08:03:13;101212.00;;;13.10
15079;BMP180;6932;51.438;5.470;2023-04-06T08:05:38;101218.00;;;13.10
15079;BMP180;6932;51.438;5.470;2023-04-06T08:08:04;101217.00;;;13.20
15079;BMP180;6932;51.438;5.470;2023-04-06T08:10:30;101221.00;;;13.20
15079;BMP180;6932;51.438;5.470;2023-04-06T08:12:56;101213.00;;;13.20
15079;BMP180;6932;51.438;5.470;2023-04-06T08:15:21;101217.00;;;13.30
15079;BMP180;6932;51.438;5.470;2023-04-06T08:17:47;101217.00;;;13.30
15079;BMP180;6932;51.438;5.470;2023-04-06T08:20:13;101224.00;;;13.30
15079;BMP180;6932;51.438;5.470;2023-04-06T08:22:38;101219.00;;;13.40
15079;BMP180;6932;51.438;5.470;2023-04-06T08:25:05;101219.00;;;13.40
15079;BMP180;6932;51.438;5.470;2023-04-06T08:27:31;101218.00;;;13.40
15079;BMP180;6932;51.438;5.470;2023-04-06T08:29:57;101217.00;;;13.50
15079;BMP180;6932;51.438;5.470;2023-04-06T08:32:22;101226.00;;;13.60
15079;BMP180;6932;51.438;5.470;2023-04-06T08:34:48;101228.00;;;13.60
15079;BMP180;6932;51.438;5.470;2023-04-06T08:37:14;101236.00;;;13.70
15079;BMP180;6932;51.438;5.470;2023-04-06T08:39:39;101232.00;;;13.70
15079;BMP180;6932;51.438;5.470;2023-04-06T08:42:18;101231.00;;;13.80
15079;BMP180;6932;51.438;5.470;2023-04-06T08:44:45;101229.00;;;13.80
15079;BMP180;6932;51.438;5.470;2023-04-06T08:47:12;101226.00;;;13.90
15079;BMP180;6932;51.438;5.470;2023-04-06T08:49:38;101245.00;;;13.90
15079;BMP180;6932;51.438;5.470;2023-04-06T08:52:06;101241.00;;;13.90
15079;BMP180;6932;51.438;5.470;2023-04-06T08:54:34;101232.00;;;14.00
15079;BMP180;6932;51.438;5.470;2023-04-06T08:57:01;101233.00;;;14.00
15079;BMP180;6932;51.438;5.470;2023-04-06T08:59:28;101234.00;;;14.10
15079;BMP180;6932;51.438;5.470;2023-04-06T09:01:55;101235.00;;;14.10
15079;BMP180;6932;51.438;5.470;2023-04-06T09:04:21;101229.00;;;14.10
15079;BMP180;6932;51.438;5.470;2023-04-06T09:06:47;101237.00;;;14.20
15079;BMP180;6932;51.438;5.470;2023-04-06T09:09:12;101240.00;;;14.20
15079;BMP180;6932;51.438;5.470;2023-04-06T09:11:49;101241.00;;;14.30
15079;BMP180;6932;51.438;5.470;2023-04-06T09:14:16;101233.00;;;14.30
15079;BMP180;6932;51.438;5.470;2023-04-06T09:16:45;101243.00;;;14.40
15079;BMP180;6932;51.438;5.470;2023-04-06T09:19:12;101240.00;;;14.40
15079;BMP180;6932;51.438;5.470;2023-04-06T09:21:38;101243.00;;;14.40
15079;BMP180;6932;51.438;5.470;2023-04-06T09:24:08;101239.00;;;14.50
15079;BMP180;6932;51.438;5.470;2023-04-06T09:26:46;101239.00;;;14.50
15079;BMP180;6932;51.438;5.470;2023-04-06T09:36:36;101241.00;;;14.50
15079;BMP180;6932;51.438;5.470;2023-04-06T09:39:06;101240.00;;;14.50
15079;BMP180;6932;51.438;5.470;2023-04-06T09:41:35;101249.00;;;14.60
15079;BMP180;6932;51.438;5.470;2023-04-06T09:44:11;101239.00;;;14.60
15079;BMP180;6932;51.438;5.470;2023-04-06T09:46:43;101237.00;;;14.60
15079;BMP180;6932;51.438;5.470;2023-04-06T09:49:11;101249.00;;;14.60
15079;BMP180;6932;51.438;5.470;2023-04-06T09:54:04;101242.00;;;14.70
15079;BMP180;6932;51.438;5.470;2023-04-06T09:56:45;101239.00;;;14.70
15079;BMP180;6932;51.438;5.470;2023-04-06T10:01:58;101245.00;;;14.70
15079;BMP180;6932;51.438;5.470;2023-04-06T10:04:39;101237.00;;;14.80
15079;BMP180;6932;51.438;5.470;2023-04-06T10:07:07;101245.00;;;14.80
15079;BMP180;6932;51.438;5.470;2023-04-06T10:09:37;101241.00;;;14.80
15079;BMP180;6932;51.438;5.470;2023-04-06T10:12:06;101243.00;;;14.80
15079;BMP180;6932;51.438;5.470;2023-04-06T10:14:35;101245.00;;;14.90
15079;BMP180;6932;51.438;5.470;2023-04-06T10:17:04;101253.00;;;14.90
15079;BMP180;6932;51.438;5.470;2023-04-06T10:19:53;101243.00;;;14.90
15079;BMP180;6932;51.438;5.470;2023-04-06T10:22:35;101245.00;;;14.90
15079;BMP180;6932;51.438;5.470;2023-04-06T10:25:02;101256.00;;;14.80
15079;BMP180;6932;51.438;5.470;2023-04-06T10:27:30;101243.00;;;14.80
15079;BMP180;6932;51.438;5.470;2023-04-06T10:33:36;101241.00;;;14.80
15079;BMP180;6932;51.438;5.470;2023-04-06T10:36:23;101233.00;;;14.80
15079;BMP180;6932;51.438;5.470;2023-04-06T10:38:56;101244.00;;;14.80
15079;BMP180;6932;51.438;5.470;2023-04-06T10:41:23;101243.00;;;14.80
15079;BMP180;6932;51.438;5.470;2023-04-06T10:43:56;101234.00;;;14.80
15079;BMP180;6932;51.438;5.470;2023-04-06T10:46:30;101242.00;;;14.80
15079;BMP180;6932;51.438;5.470;2023-04-06T10:48:57;101242.00;;;14.80
15079;BMP180;6932;51.438;5.470;2023-04-06T10:51:28;101234.00;;;14.80
15079;BMP180;6932;51.438;5.470;2023-04-06T10:53:55;101233.00;;;14.80
15079;BMP180;6932;51.438;5.470;2023-04-06T10:56:25;101227.00;;;14.90
15079;BMP180;6932;51.438;5.470;2023-04-06T10:58:54;101223.00;;;14.80
15079;BMP180;6932;51.438;5.470;2023-04-06T11:01:24;101218.00;;;14.80
15079;BMP180;6932;51.438;5.470;2023-04-06T11:03:56;101219.00;;;14.80
15079;BMP180;6932;51.438;5.470;2023-04-06T11:10:07;101214.00;;;14.80
15079;BMP180;6932;51.438;5.470;2023-04-06T11:12:33;101212.00;;;14.80
15079;BMP180;6932;51.438;5.470;2023-04-06T11:15:03;101226.00;;;14.80
15079;BMP180;6932;51.438;5.470;2023-04-06T11:17:37;101223.00;;;14.80
15079;BMP180;6932;51.438;5.470;2023-04-06T11:20:09;101220.00;;;14.80
15079;BMP180;6932;51.438;5.470;2023-04-06T11:22:35;101221.00;;;14.80
15079;BMP180;6932;51.438;5.470;2023-04-06T11:25:08;101217.00;;;14.80
15079;BMP180;6932;51.438;5.470;2023-04-06T11:27:34;101200.00;;;14.80
15079;BMP180;6932;51.438;5.470;2023-04-06T11:30:02;101217.00;;;14.80
15079;BMP180;6932;51.438;5.470;2023-04-06T11:32:28;101215.00;;;14.70
15079;BMP180;6932;51.438;5.470;2023-04-06T11:34:57;101202.00;;;14.70
15079;BMP180;6932;51.438;5.470;2023-04-06T11:37:26;101199.00;;;14.70
15079;BMP180;6932;51.438;5.470;2023-04-06T12:02:28;101173.00;;;14.50
15079;BMP180;6932;51.438;5.470;2023-04-06T12:04:54;101169.00;;;14.60
15079;BMP180;6932;51.438;5.470;2023-04-06T12:07:20;101169.00;;;14.60
15079;BMP180;6932;51.438;5.470;2023-04-06T12:09:45;101174.00;;;14.60
15079;BMP180;6932;51.438;5.470;2023-04-06T12:12:11;101159.00;;;14.60
15079;BMP180;6932;51.438;5.470;2023-04-06T12:14:37;101161.00;;;14.60
15079;BMP180;6932;51.438;5.470;2023-04-06T12:17:02;101175.00;;;14.60
15079;BMP180;6932;51.438;5.470;2023-04-06T12:19:28;101171.00;;;14.70
15079;BMP180;6932;51.438;5.470;2023-04-06T12:21:54;101159.00;;;14.70
15079;BMP180;6932;51.438;5.470;2023-04-06T12:24:20;101169.00;;;14.70
15079;BMP180;6932;51.438;5.470;2023-04-06T12:26:46;101160.00;;;14.70
15079;BMP180;6932;51.438;5.470;2023-04-06T12:29:12;101147.00;;;14.70
15079;BMP180;6932;51.438;5.470;2023-04-06T12:31:39;101157.00;;;14.70
15079;BMP180;6932;51.438;5.470;2023-04-06T12:34:06;101161.00;;;14.70
15079;BMP180;6932;51.438;5.470;2023-04-06T12:36:33;101164.00;;;14.70
15079;BMP180;6932;51.438;5.470;2023-04-06T12:38:59;101155.00;;;14.70
15079;BMP180;6932;51.438;5.470;2023-04-06T12:41:27;101162.00;;;14.70
15079;BMP180;6932;51.438;5.470;2023-04-06T12:47:34;101161.00;;;14.60
15079;BMP180;6932;51.438;5.470;2023-04-06T12:50:02;101153.00;;;14.60
15079;BMP180;6932;51.438;5.470;2023-04-06T12:52:28;101154.00;;;14.60
15079;BMP180;6932;51.438;5.470;2023-04-06T12:54:57;101148.00;;;14.60
15079;BMP180;6932;51.438;5.470;2023-04-06T12:57:23;101148.00;;;14.60
15079;BMP180;6932;51.438;5.470;2023-04-06T12:59:49;101152.00;;;14.60
15079;BMP180;6932;51.438;5.470;2023-04-06T13:02:15;101143.00;;;14.60
15079;BMP180;6932;51.438;5.470;2023-04-06T13:04:41;101139.00;;;14.60
15079;BMP180;6932;51.438;5.470;2023-04-06T13:07:07;101139.00;;;14.60
15079;BMP180;6932;51.438;5.470;2023-04-06T13:09:32;101136.00;;;14.60
15079;BMP180;6932;51.438;5.470;2023-04-06T13:11:58;101140.00;;;14.50
15079;BMP180;6932;51.438;5.470;2023-04-06T13:14:24;101123.00;;;14.50
15079;BMP180;6932;51.438;5.470;2023-04-06T13:16:50;101123.00;;;14.50
15079;BMP180;6932;51.438;5.470;2023-04-06T13:19:16;101134.00;;;14.50
15079;BMP180;6932;51.438;5.470;2023-04-06T13:21:43;101121.00;;;14.50
15079;BMP180;6932;51.438;5.470;2023-04-06T13:24:09;101110.00;;;14.50
15079;BMP180;6932;51.438;5.470;2023-04-06T13:26:35;101110.00;;;14.50
15079;BMP180;6932;51.438;5.470;2023-04-06T13:29:01;101103.00;;;14.50
15079;BMP180;6932;51.438;5.470;2023-04-06T13:31:28;101110.00;;;14.50
15079;BMP180;6932;51.438;5.470;2023-04-06T13:33:54;101107.00;;;14.50
15079;BMP180;6932;51.438;5.470;2023-04-06T13:36:20;101093.00;;;14.50
15079;BMP180;6932;51.438;5.470;2023-04-06T13:38:46;101108.00;;;14.50
15079;BMP180;6932;51.438;5.470;2023-04-06T13:48:34;101088.00;;;14.30
15079;BMP180;6932;51.438;5.470;2023-04-06T13:51:12;101079.00;;;14.40
15079;BMP180;6932;51.438;5.470;2023-04-06T13:53:39;101087.00;;;14.40
15079;BMP180;6932;51.438;5.470;2023-04-06T13:56:06;101079.00;;;14.40
15079;BMP180;6932;51.438;5.470;2023-04-06T13:58:33;101087.00;;;14.40
15079;BMP180;6932;51.438;5.470;2023-04-06T14:01:07;101088.00;;;14.40
15079;BMP180;6932;51.438;5.470;2023-04-06T14:03:36;101081.00;;;14.40
15079;BMP180;6932;51.438;5.470;2023-04-06T14:06:38;101088.00;;;14.30
15079;BMP180;6932;51.438;5.470;2023-04-06T14:09:05;101085.00;;;14.30
15079;BMP180;6932;51.438;5.470;2023-04-06T14:11:31;101071.00;;;14.30
15079;BMP180;6932;51.438;5.470;2023-04-06T14:13:57;101079.00;;;14.30
15079;BMP180;6932;51.438;5.470;2023-04-06T14:16:24;101082.00;;;14.30
15079;BMP180;6932;51.438;5.470;2023-04-06T14:18:50;101078.00;;;14.30
15079;BMP180;6932;51.438;5.470;2023-04-06T14:21:16;101077.00;;;14.30
15079;BMP180;6932;51.438;5.470;2023-04-06T14:23:41;101063.00;;;14.30
15079;BMP180;6932;51.438;5.470;2023-04-06T14:26:08;101068.00;;;14.30
15079;BMP180;6932;51.438;5.470;2023-04-06T14:28:35;101059.00;;;14.30
15079;BMP180;6932;51.438;5.470;2023-04-06T14:31:10;101070.00;;;14.30
15079;BMP180;6932;51.438;5.470;2023-04-06T14:33:37;101071.00;;;14.30
15079;BMP180;6932;51.438;5.470;2023-04-06T14:36:03;101061.00;;;14.30
15079;BMP180;6932;51.438;5.470;2023-04-06T14:38:32;101065.00;;;14.30
15079;BMP180;6932;51.438;5.470;2023-04-06T14:40:58;101056.00;;;14.20
15079;BMP180;6932;51.438;5.470;2023-04-06T14:43:23;101063.00;;;14.20
15079;BMP180;6932;51.438;5.470;2023-04-06T14:45:50;101057.00;;;14.20
15079;BMP180;6932;51.438;5.470;2023-04-06T14:48:16;101049.00;;;14.20
15079;BMP180;6932;51.438;5.470;2023-04-06T14:50:55;101061.00;;;14.20
15079;BMP180;6932;51.438;5.470;2023-04-06T14:53:22;101057.00;;;14.20
15079;BMP180;6932;51.438;5.470;2023-04-06T14:55:49;101058.00;;;14.20
15079;BMP180;6932;51.438;5.470;2023-04-06T14:58:22;101037.00;;;14.20
15079;BMP180;6932;51.438;5.470;2023-04-06T15:00:49;101035.00;;;14.20
15079;BMP180;6932;51.438;5.470;2023-04-06T15:03:15;101041.00;;;14.10
15079;BMP180;6932;51.438;5.470;2023-04-06T15:05:41;101039.00;;;14.10
15079;BMP180;6932;51.438;5.470;2023-04-06T15:08:07;101042.00;;;14.10
15079;BMP180;6932;51.438;5.470;2023-04-06T15:10:37;101033.00;;;14.10
15079;BMP180;6932;51.438;5.470;2023-04-06T15:13:02;101030.00;;;14.10
15079;BMP180;6932;51.438;5.470;2023-04-06T15:15:28;101013.00;;;14.10
15079;BMP180;6932;51.438;5.470;2023-04-06T15:17:54;101028.00;;;14.10
15079;BMP180;6932;51.438;5.470;2023-04-06T15:20:20;101026.00;;;14.10
15079;BMP180;6932;51.438;5.470;2023-04-06T15:22:46;101022.00;;;14.10
15079;BMP180;6932;51.438;5.470;2023-04-06T15:25:11;101036.00;;;14.10
15079;BMP180;6932;51.438;5.470;2023-04-06T15:27:37;101030.00;;;14.10
15079;BMP180;6932;51.438;5.470;2023-04-06T15:30:04;101016.00;;;14.10
15079;BMP180;6932;51.438;5.470;2023-04-06T15:32:30;101020.00;;;14.10
15079;BMP180;6932;51.438;5.470;2023-04-06T15:34:59;101018.00;;;14.10
15079;BMP180;6932;51.438;5.470;2023-04-06T15:37:25;101022.00;;;14.10
15079;BMP180;6932;51.438;5.470;2023-04-06T15:39:52;101021.00;;;14.10
15079;BMP180;6932;51.438;5.470;2023-04-06T15:42:18;101018.00;;;14.10
15079;BMP180;6932;51.438;5.470;2023-04-06T15:44:43;101022.00;;;14.10
15079;BMP180;6932;51.438;5.470;2023-04-06T15:47:09;101014.00;;;14.10